CheckWX is a tool to help pilots better visualize weather data.  It is not intended as a substitute for an official pre-flight weather briefing.

07:25:30 UTC

KANW METAR
Ainsworth Regional Airport
Ainsworth, Nebraska, USA
Current

31 mins ago

KANW 260655Z AUTO 12007KT 1/2SM FG VV005 10/09 A3003 RMK AO2 T00980093
Observed
May-26 @ 06:55 UTC
Wind
  • 120° at 7 KTS
Visibility
1/2 SM
Flight Rules
LIFR
Conditions
Fog
Cloud Levels
  • Vertical visibility at 500' AGL
Temperature
10°C / 50°F
Dewpoint
C / 48°F
Humidity
94%
Altimeter
30.03" Hg
Pressure
1016.92 hPa
Previous

51 mins ago

KANW 260635Z AUTO 12005KT 1/2SM FG VV005 10/09 A3003 RMK AO2 T01030091
Observed
May-26 @ 06:35 UTC
Wind
  • 120° at 5 KTS
Visibility
1/2 SM
Flight Rules
LIFR
Conditions
Fog
Cloud Levels
  • Vertical visibility at 500' AGL
Temperature
10°C / 50°F
Dewpoint
C / 48°F
Humidity
94%
Altimeter
30.03" Hg
Pressure
1016.92 hPa
Previous

1 hour ago

KANW 260615Z AUTO 13006KT 1/4SM FG VV002 11/09 A3003 RMK AO2 T01050091
Observed
May-26 @ 06:15 UTC
Wind
  • 130° at 6 KTS
Visibility
1/4 SM
Flight Rules
LIFR
Conditions
Fog
Cloud Levels
  • Vertical visibility at 200' AGL
Temperature
11°C / 52°F
Dewpoint
C / 48°F
Humidity
88%
Altimeter
30.03" Hg
Pressure
1016.92 hPa